Time;durP1;ratioP1;P1;durP2;ratioP2;P2;SDS_P1;SDS_P2;PMS_P1;PMS_P2;Temp;Humidity;BMP_temperature;BMP_pressure;BME280_temperature;BME280_humidity;BME280_pressure;Samples;Min_cycle;Max_cycle;Signal;HPM_P1;HPM_P2
2021/09/02 00:00:07;;;;;;;5.40;3.00;;;;;;;13.16;77.10;97480.21;116341;1181;70591;-68
2021/09/02 00:02:57;;;;;;;7.10;3.10;;;;;;;13.17;77.09;97484.90;116341;1180;69074;-69
2021/09/02 00:05:26;;;;;;;4.50;3.60;;;;;;;13.14;77.00;97489.13;116342;1182;69153;-69
2021/09/02 00:07:56;;;;;;;5.40;3.60;;;;;;;13.14;76.83;97491.20;116349;1181;59522;-67
2021/09/02 00:10:26;;;;;;;4.70;3.00;;;;;;;13.16;76.76;97485.30;116351;1178;59542;-68
2021/09/02 00:12:55;;;;;;;5.30;2.80;;;;;;;13.15;76.75;97485.20;116338;1182;70591;-69
2021/09/02 00:15:25;;;;;;;4.80;3.30;;;;;;;13.13;76.89;97482.38;116183;1181;69104;-69
2021/09/02 00:17:54;;;;;;;4.70;3.30;;;;;;;13.11;76.92;97479.73;116191;1182;68657;-71
2021/09/02 00:20:24;;;;;;;;;;;;;;;13.08;76.86;97484.19;116286;1178;59603;-71
2021/09/02 00:22:59;;;;;;;4.00;3.30;;;;;;;13.05;76.93;97484.83;116466;1178;59525;-69
2021/09/02 00:25:28;;;;;;;5.00;3.10;;;;;;;13.04;76.88;97489.30;116309;1178;69974;-70
2021/09/02 00:27:57;;;;;;;4.70;3.20;;;;;;;13.03;76.92;97490.23;116331;1178;68386;-69
2021/09/02 00:30:27;;;;;;;6.50;3.30;;;;;;;13.01;77.07;97490.01;116313;1182;69284;-69
2021/09/02 00:32:57;;;;;;;5.10;3.30;;;;;;;12.99;77.03;97489.14;116222;1178;59516;-69
2021/09/02 00:35:26;;;;;;;5.70;3.70;;;;;;;12.98;77.04;97493.55;116338;1179;59495;-69
2021/09/02 00:37:57;;;;;;;5.10;2.90;;;;;;;12.97;76.99;97497.12;116337;1178;70760;-69
2021/09/02 00:40:26;;;;;;;5.20;3.60;;;;;;;12.94;76.98;97496.33;116346;1178;69171;-70
2021/09/02 00:42:56;;;;;;;6.50;3.90;;;;;;;12.95;77.02;97499.61;116378;1181;68442;-69
2021/09/02 00:45:25;;;;;;;4.60;3.30;;;;;;;12.96;77.01;97499.21;116305;1182;59511;-67
2021/09/02 00:47:55;;;;;;;4.80;3.60;;;;;;;12.96;76.89;97496.41;116348;1181;59977;-68
2021/09/02 00:50:27;;;;;;;4.90;3.40;;;;;;;12.92;76.84;97495.87;116327;1177;71310;-69
2021/09/02 00:53:00;;;;;;;5.20;3.70;;;;;;;12.92;76.81;97499.38;116343;1182;68988;-67
2021/09/02 00:55:31;;;;;;;4.50;3.60;;;;;;;12.93;76.75;97494.38;116353;1181;68406;-69
2021/09/02 00:58:01;;;;;;;4.40;3.40;;;;;;;12.91;76.55;97498.51;116370;1181;59547;-71
2021/09/02 01:00:30;;;;;;;6.00;3.80;;;;;;;12.90;76.53;97497.95;116357;1177;59539;-67
2021/09/02 01:03:03;;;;;;;4.60;3.90;;;;;;;12.91;76.50;97502.77;116581;1179;71328;-71
2021/09/02 01:05:34;;;;;;;5.80;3.40;;;;;;;12.88;76.45;97501.40;116267;1181;69149;-68
2021/09/02 01:08:06;;;;;;;5.50;3.60;;;;;;;12.87;76.36;97500.93;116412;1182;69200;-69
2021/09/02 01:10:36;;;;;;;6.80;3.50;;;;;;;12.86;76.43;97499.98;116347;1178;59548;-69
2021/09/02 01:13:06;;;;;;;5.70;3.80;;;;;;;12.85;76.48;97500.58;116381;1178;59616;-69
2021/09/02 01:15:35;;;;;;;5.10;4.50;;;;;;;12.81;76.53;97504.28;116348;1181;70360;-67
2021/09/02 01:18:05;;;;;;;7.10;4.80;;;;;;;12.69;76.80;97502.40;116355;1178;69010;-67
2021/09/02 01:20:35;;;;;;;6.20;4.30;;;;;;;12.68;76.57;97504.42;116353;1179;68391;-67
2021/09/02 01:23:07;;;;;;;5.40;3.40;;;;;;;12.64;76.34;97502.83;116345;1181;59523;-69
2021/09/02 01:25:42;;;;;;;4.40;3.20;;;;;;;12.62;76.77;97503.30;116333;1178;59512;-67
2021/09/02 01:28:12;;;;;;;6.40;4.40;;;;;;;12.61;76.93;97510.38;116376;1177;70517;-66
2021/09/02 01:30:44;;;;;;;7.30;5.60;;;;;;;12.56;77.24;97509.19;116407;1181;68818;-68
2021/09/02 01:33:16;;;;;;;7.10;3.30;;;;;;;12.53;77.09;97509.13;116397;1181;68281;-69
2021/09/02 01:35:46;;;;;;;7.10;4.60;;;;;;;12.56;77.00;97508.17;116341;1179;59526;-69
2021/09/02 01:38:16;;;;;;;;;;;;;;;12.54;77.37;97507.13;116415;1179;59538;-65
2021/09/02 01:40:49;;;;;;;4.30;3.30;;;;;;;12.57;77.13;97511.23;116380;1179;70719;-69
2021/09/02 01:43:20;;;;;;;5.00;3.60;;;;;;;12.58;77.06;97514.48;116350;1179;68458;-67
2021/09/02 01:45:49;;;;;;;;;;;;;;;12.59;77.01;97512.52;116330;1182;68621;-67
2021/09/02 01:48:20;;;;;;;5.20;3.60;;;;;;;12.60;76.93;97511.69;116400;1178;59498;-68
2021/09/02 01:50:50;;;;;;;;;;;;;;;12.60;76.97;97511.02;116273;1182;59548;-69
2021/09/02 01:53:20;;;;;;;;;;;;;;;12.59;76.91;97505.09;116239;1182;70379;-68
2021/09/02 01:55:51;;;;;;;5.70;4.00;;;;;;;12.59;76.90;97506.58;116276;1181;69051;-67
2021/09/02 01:58:22;;;;;;;6.00;4.50;;;;;;;12.59;76.83;97506.94;116230;1182;68603;-68
2021/09/02 02:00:53;;;;;;;6.60;4.50;;;;;;;12.52;77.11;97510.09;116261;1178;59566;-68
2021/09/02 02:03:24;;;;;;;5.90;4.10;;;;;;;12.48;77.04;97510.20;116258;1179;59545;-67
2021/09/02 02:05:54;;;;;;;6.10;3.80;;;;;;;12.48;76.91;97509.80;116199;1182;70575;-68
2021/09/02 02:08:25;;;;;;;6.80;4.10;;;;;;;12.47;77.12;97511.68;116311;1181;68496;-67
2021/09/02 02:10:55;;;;;;;6.00;4.50;;;;;;;12.43;77.30;97513.52;116193;1178;69217;-68
2021/09/02 02:13:26;;;;;;;5.80;4.10;;;;;;;12.45;77.28;97512.85;116279;1182;59547;-66
2021/09/02 02:15:56;;;;;;;6.90;4.70;;;;;;;12.41;77.49;97512.64;116215;1181;59557;-68
2021/09/02 02:18:26;;;;;;;7.50;5.10;;;;;;;12.40;77.43;97512.79;116186;1182;70370;-68
2021/09/02 02:20:56;;;;;;;5.70;4.90;;;;;;;12.41;77.25;97511.83;116310;1182;68526;-66
2021/09/02 02:23:27;;;;;;;7.60;4.70;;;;;;;12.39;77.12;97514.55;116360;1179;68473;-68
2021/09/02 02:25:56;;;;;;;7.90;4.90;;;;;;;12.37;77.48;97519.65;116327;1182;59548;-67
2021/09/02 02:28:27;;;;;;;6.40;5.50;;;;;;;12.37;77.50;97519.63;116376;1182;59601;-68
2021/09/02 02:30:56;;;;;;;7.10;4.50;;;;;;;12.34;77.42;97519.02;116335;1182;70540;-68
2021/09/02 02:33:26;;;;;;;6.70;5.30;;;;;;;12.36;77.30;97520.61;116342;1182;68097;-68
2021/09/02 02:35:55;;;;;;;9.60;6.30;;;;;;;12.33;77.57;97518.73;116336;1181;68919;-65
2021/09/02 02:38:26;;;;;;;9.40;6.20;;;;;;;12.29;77.80;97518.88;116298;1179;59546;-67
2021/09/02 02:40:56;;;;;;;7.00;4.30;;;;;;;12.27;77.63;97519.21;116384;1179;59625;-67
2021/09/02 02:43:26;;;;;;;6.50;4.30;;;;;;;12.30;77.52;97519.16;116350;1182;70537;-66
2021/09/02 02:45:58;;;;;;;9.40;6.00;;;;;;;12.30;77.40;97517.19;116299;1178;69090;-68
2021/09/02 02:48:28;;;;;;;7.10;4.40;;;;;;;12.32;77.23;97523.38;116345;1182;69028;-69
2021/09/02 02:50:59;;;;;;;9.70;5.80;;;;;;;12.31;77.35;97519.56;116365;1178;59597;-67
2021/09/02 02:53:29;;;;;;;7.00;5.00;;;;;;;12.32;77.29;97521.08;116360;1178;59524;-67
2021/09/02 02:55:59;;;;;;;7.30;4.90;;;;;;;12.33;77.37;97523.13;116334;1182;71315;-66
2021/09/02 02:58:28;;;;;;;7.40;5.10;;;;;;;12.29;77.40;97520.25;116401;1179;68162;-66
2021/09/02 03:00:58;;;;;;;7.00;5.20;;;;;;;12.30;77.24;97523.70;116342;1178;67548;-68
2021/09/02 03:03:29;;;;;;;8.70;4.80;;;;;;;12.28;77.81;97525.07;116398;1178;59518;-68
2021/09/02 03:05:59;;;;;;;9.90;6.50;;;;;;;12.28;77.65;97526.27;116355;1182;59531;-67
2021/09/02 03:08:29;;;;;;;;;;;;;;;12.25;77.53;97529.62;116160;1183;71167;-70
2021/09/02 03:11:01;;;;;;;6.60;4.80;;;;;;;12.24;77.50;97532.86;116228;1182;68384;-68
2021/09/02 03:13:31;;;;;;;5.50;4.10;;;;;;;12.24;77.54;97531.98;116327;1179;68412;-68
2021/09/02 03:16:01;;;;;;;7.80;5.20;;;;;;;12.24;77.64;97536.70;116267;1182;59537;-68
2021/09/02 03:18:31;;;;;;;6.70;3.80;;;;;;;12.24;77.79;97537.23;116266;1181;59482;-67
2021/09/02 03:21:01;;;;;;;7.70;5.90;;;;;;;12.25;77.73;97540.13;116326;1182;70550;-66
2021/09/02 03:23:30;;;;;;;7.70;6.20;;;;;;;12.23;78.26;97540.76;116335;1181;69152;-69
2021/09/02 03:26:00;;;;;;;6.80;5.40;;;;;;;12.22;78.19;97541.77;116359;1179;68626;-66
2021/09/02 03:28:30;;;;;;;7.50;5.90;;;;;;;12.22;78.04;97541.94;116231;1182;59533;-68
2021/09/02 03:31:00;;;;;;;6.90;4.60;;;;;;;12.22;77.80;97542.08;116307;1182;58988;-67
2021/09/02 03:33:30;;;;;;;7.30;4.70;;;;;;;12.24;77.81;97545.09;116347;1182;70537;-66
2021/09/02 03:36:00;;;;;;;6.10;3.80;;;;;;;12.24;77.54;97544.56;116306;1183;69081;-66
2021/09/02 03:38:30;;;;;;;;;;;;;;;12.23;77.46;97545.65;116380;1178;69226;-68
2021/09/02 03:41:01;;;;;;;7.60;5.10;;;;;;;12.22;77.64;97543.84;116314;1178;59526;-66
2021/09/02 03:43:30;;;;;;;7.90;6.40;;;;;;;12.20;77.79;97545.05;116367;1182;59496;-66
2021/09/02 03:46:00;;;;;;;8.10;5.50;;;;;;;12.16;77.76;97544.16;116341;1182;70517;-67
2021/09/02 03:48:29;;;;;;;7.20;5.90;;;;;;;12.07;77.67;97546.75;116317;1182;68514;-71
2021/09/02 03:50:59;;;;;;;7.00;5.40;;;;;;;11.98;77.99;97550.20;116269;1182;69017;-67
2021/09/02 03:53:29;;;;;;;6.70;5.30;;;;;;;11.91;78.04;97550.61;116376;1181;59636;-67
2021/09/02 03:55:58;;;;;;;7.40;5.60;;;;;;;11.90;77.90;97556.30;116301;1180;59562;-68
2021/09/02 03:58:27;;;;;;;7.10;5.50;;;;;;;11.85;78.20;97552.98;116302;1180;71250;-68
2021/09/02 04:00:57;;;;;;;7.40;5.20;;;;;;;11.81;78.36;97553.61;116321;1181;68984;-68
2021/09/02 04:03:26;;;;;;;6.40;5.40;;;;;;;11.78;78.36;97547.04;116342;1179;68299;-67
2021/09/02 04:05:56;;;;;;;9.00;6.10;;;;;;;11.73;78.44;97545.06;116330;1182;59619;-66
2021/09/02 04:08:26;;;;;;;7.70;6.00;;;;;;;11.71;78.48;97551.88;116325;1181;59496;-66
2021/09/02 04:10:55;;;;;;;;;;;;;;;11.68;78.75;97557.73;116190;1181;70811;-67
2021/09/02 04:13:25;;;;;;;11.00;6.40;;;;;;;11.64;78.90;97560.31;116218;1181;69153;-67
2021/09/02 04:15:55;;;;;;;9.90;5.80;;;;;;;11.61;78.75;97565.03;116261;1182;68247;-66
2021/09/02 04:18:25;;;;;;;8.60;5.80;;;;;;;11.61;78.81;97566.98;116249;1181;59523;-65
2021/09/02 04:20:55;;;;;;;7.10;4.90;;;;;;;11.62;78.66;97570.04;116236;1181;59542;-65
2021/09/02 04:23:24;;;;;;;9.60;6.70;;;;;;;11.60;78.99;97571.21;116229;1182;70383;-67
2021/09/02 04:25:54;;;;;;;6.10;5.10;;;;;;;11.58;79.17;97575.23;116367;1182;69014;-67
2021/09/02 04:28:23;;;;;;;7.30;5.50;;;;;;;11.61;78.94;97578.52;116328;1180;69020;-65
2021/09/02 04:30:52;;;;;;;10.20;7.80;;;;;;;11.65;79.06;97581.17;116216;1181;59527;-66
2021/09/02 04:33:22;;;;;;;9.40;6.20;;;;;;;11.73;79.08;97581.59;116221;1182;59517;-67
2021/09/02 04:35:52;;;;;;;8.00;5.90;;;;;;;11.76;78.88;97583.31;116237;1179;71375;-66
2021/09/02 04:38:22;;;;;;;8.70;6.50;;;;;;;11.80;78.76;97579.73;116222;1182;69020;-66
2021/09/02 04:40:51;;;;;;;;;;;;;;;11.83;78.61;97578.79;116239;1182;68412;-66
2021/09/02 04:43:21;;;;;;;10.50;6.80;;;;;;;11.86;78.65;97585.59;116253;1181;59608;-65
2021/09/02 04:45:51;;;;;;;8.70;6.10;;;;;;;11.94;78.56;97588.80;116280;1179;59571;-66
2021/09/02 04:48:22;;;;;;;9.60;6.40;;;;;;;12.04;78.34;97592.58;116239;1182;71253;-68
2021/09/02 04:50:52;;;;;;;8.10;5.60;;;;;;;12.07;77.88;97587.96;116211;1181;69573;-67
2021/09/02 04:53:21;;;;;;;6.50;4.90;;;;;;;12.11;77.67;97595.40;116218;1182;67729;-66
2021/09/02 04:55:50;;;;;;;10.20;8.00;;;;;;;12.13;77.67;97602.70;116218;1182;59525;-67
2021/09/02 04:58:20;;;;;;;7.90;6.30;;;;;;;12.04;77.83;97607.91;116218;1182;59968;-68
2021/09/02 05:00:50;;;;;;;8.70;7.40;;;;;;;12.10;77.91;97610.64;116230;1180;71360;-69
2021/09/02 05:03:19;;;;;;;10.70;7.90;;;;;;;12.16;77.46;97613.65;116328;1182;68930;-69
2021/09/02 05:05:49;;;;;;;8.60;5.90;;;;;;;12.48;77.52;97614.20;116313;1181;68569;-66
2021/09/02 05:08:18;;;;;;;7.30;5.50;;;;;;;12.89;76.84;97619.95;116326;1181;59551;-67
2021/09/02 05:10:47;;;;;;;8.20;5.90;;;;;;;13.26;75.47;97625.73;116166;1179;59515;-70
2021/09/02 05:13:16;;;;;;;6.80;5.30;;;;;;;13.52;74.04;97622.96;116357;1182;70799;-67
2021/09/02 05:15:45;;;;;;;7.80;5.90;;;;;;;13.72;72.50;97620.94;116380;1178;69268;-66
2021/09/02 05:18:15;;;;;;;7.40;5.90;;;;;;;13.84;72.25;97624.58;116316;1177;69476;-65
2021/09/02 05:20:44;;;;;;;6.90;5.50;;;;;;;14.06;71.42;97624.98;116334;1181;59492;-66
2021/09/02 05:23:13;;;;;;;8.00;4.90;;;;;;;14.14;71.11;97628.01;116203;1178;59530;-68
2021/09/02 05:25:42;;;;;;;7.50;5.10;;;;;;;14.33;70.31;97625.87;116367;1179;70829;-68
2021/09/02 05:28:12;;;;;;;8.00;5.30;;;;;;;14.48;69.82;97625.60;116314;1181;68995;-68
2021/09/02 05:30:41;;;;;;;6.20;4.80;;;;;;;14.53;69.77;97631.70;116151;1182;69031;-67
2021/09/02 05:33:10;;;;;;;6.50;4.90;;;;;;;14.60;69.50;97639.05;116421;1179;59530;-70
2021/09/02 05:35:39;;;;;;;8.20;4.00;;;;;;;14.58;69.35;97646.73;116374;1182;59496;-67
2021/09/02 05:38:11;;;;;;;8.00;5.60;;;;;;;14.57;69.31;97646.70;116295;1179;70724;-68
2021/09/02 05:40:41;;;;;;;8.00;5.90;;;;;;;14.63;68.60;97648.37;116224;1181;69196;-67
2021/09/02 05:43:10;;;;;;;8.00;5.50;;;;;;;14.61;68.75;97653.69;116259;1181;68690;-68
2021/09/02 05:45:39;;;;;;;6.90;5.30;;;;;;;14.74;68.40;97654.98;116213;1182;59552;-67
2021/09/02 05:48:09;;;;;;;6.60;4.20;;;;;;;14.90;68.40;97662.09;116215;1181;59552;-65
2021/09/02 05:50:38;;;;;;;6.40;5.30;;;;;;;15.23;67.12;97656.04;116267;1182;71312;-68
2021/09/02 05:53:09;;;;;;;6.40;4.50;;;;;;;15.57;66.11;97659.53;116325;1181;68712;-66
2021/09/02 05:55:38;;;;;;;5.80;4.60;;;;;;;16.00;64.72;97660.11;116332;1181;69153;-67
2021/09/02 05:58:07;;;;;;;6.00;4.50;;;;;;;16.26;64.08;97659.21;116374;1180;59508;-65
2021/09/02 06:00:36;;;;;;;7.00;4.20;;;;;;;16.39;63.83;97663.92;116282;1179;59479;-66
2021/09/02 06:03:05;;;;;;;6.00;4.30;;;;;;;16.47;63.10;97657.86;116278;1178;71546;-67
2021/09/02 06:05:35;;;;;;;5.80;4.10;;;;;;;16.39;62.26;97664.53;116340;1181;69173;-67
2021/09/02 06:08:04;;;;;;;5.00;3.90;;;;;;;16.25;62.15;97663.69;116293;1181;69213;-67
2021/09/02 06:10:33;;;;;;;5.60;3.90;;;;;;;16.04;63.21;97664.63;116243;1184;59591;-68
2021/09/02 06:13:03;;;;;;;5.80;3.90;;;;;;;16.04;63.19;97673.37;116322;1179;59461;-67
2021/09/02 06:15:32;;;;;;;5.10;3.90;;;;;;;15.92;63.22;97682.26;116333;1181;71150;-66
2021/09/02 06:18:01;;;;;;;5.50;4.10;;;;;;;15.69;63.84;97683.56;116322;1181;69171;-67
2021/09/02 06:20:31;;;;;;;7.20;4.80;;;;;;;15.55;64.43;97683.77;116359;1181;68546;-66
2021/09/02 06:23:00;;;;;;;6.90;5.00;;;;;;;15.44;64.27;97684.68;116286;1180;59543;-68
2021/09/02 06:25:29;;;;;;;7.30;4.30;;;;;;;15.17;64.88;97685.10;116320;1180;59559;-72
2021/09/02 06:27:59;;;;;;;6.00;4.50;;;;;;;15.12;65.45;97684.59;116319;1179;71464;-67
2021/09/02 06:30:28;;;;;;;4.80;3.70;;;;;;;14.97;66.18;97690.23;116339;1182;68077;-67
2021/09/02 06:32:57;;;;;;;7.00;4.80;;;;;;;14.88;66.26;97692.58;116342;1181;69344;-67
2021/09/02 06:35:26;;;;;;;7.30;5.40;;;;;;;14.79;66.79;97697.92;116283;1179;59545;-68
2021/09/02 06:37:55;;;;;;;6.40;4.50;;;;;;;14.65;67.06;97698.56;116289;1178;59537;-67
2021/09/02 06:40:25;;;;;;;5.20;4.00;;;;;;;14.59;67.33;97701.21;116343;1181;71384;-68
2021/09/02 06:42:54;;;;;;;5.50;4.40;;;;;;;14.57;67.57;97704.86;116327;1184;68655;-67
2021/09/02 06:45:22;;;;;;;5.40;4.00;;;;;;;14.57;67.97;97701.92;116313;1181;69307;-67
2021/09/02 06:47:52;;;;;;;6.30;3.80;;;;;;;14.61;67.95;97698.59;116353;1181;59491;-67
2021/09/02 06:50:21;;;;;;;6.40;3.60;;;;;;;14.65;67.94;97697.15;116208;1181;59568;-66
2021/09/02 06:52:51;;;;;;;6.70;4.10;;;;;;;14.69;67.41;97699.82;116199;1181;71326;-68
2021/09/02 06:55:20;;;;;;;6.20;3.80;;;;;;;14.73;67.17;97700.48;116194;1182;69230;-65
2021/09/02 06:57:50;;;;;;;5.90;4.30;;;;;;;14.65;67.61;97708.72;116187;1181;68606;-66
2021/09/02 07:00:19;;;;;;;6.50;4.20;;;;;;;14.67;67.73;97701.91;116233;1181;59571;-68
2021/09/02 07:02:48;;;;;;;5.40;4.00;;;;;;;14.78;68.03;97706.24;116212;1181;59492;-66
2021/09/02 07:05:18;;;;;;;6.00;4.50;;;;;;;14.89;67.88;97707.79;116214;1179;71352;-66
2021/09/02 07:07:47;;;;;;;7.40;4.20;;;;;;;15.00;67.09;97705.41;116200;1182;69283;-65
2021/09/02 07:10:36;;;;;;;7.20;5.10;;;;;;;15.02;66.24;97705.80;116189;1182;68713;-68
2021/09/02 07:13:06;;;;;;;10.20;5.10;;;;;;;14.94;66.62;97703.95;116211;1181;59457;-68
2021/09/02 07:15:35;;;;;;;8.40;5.40;;;;;;;15.03;66.80;97702.52;116243;1181;59530;-66
2021/09/02 07:18:05;;;;;;;5.80;4.10;;;;;;;15.12;66.32;97706.51;116366;1181;71374;-66
2021/09/02 07:20:34;;;;;;;4.60;3.50;;;;;;;15.25;66.40;97706.75;116185;1181;68379;-66
2021/09/02 07:23:03;;;;;;;5.00;3.80;;;;;;;15.48;66.50;97708.73;116201;1182;69107;-66
2021/09/02 07:25:32;;;;;;;5.90;4.40;;;;;;;15.81;66.03;97711.30;116290;1181;59542;-65
2021/09/02 07:28:02;;;;;;;6.80;4.30;;;;;;;16.18;66.23;97709.01;116188;1181;59525;-68
2021/09/02 07:30:31;;;;;;;4.50;3.60;;;;;;;16.57;63.74;97711.77;116203;1181;70949;-65
2021/09/02 07:33:00;;;;;;;5.60;4.10;;;;;;;16.71;62.15;97710.31;116158;1178;69288;-70
2021/09/02 07:35:30;;;;;;;5.00;4.30;;;;;;;16.76;62.70;97714.22;116347;1180;69349;-69
2021/09/02 07:37:59;;;;;;;5.10;4.10;;;;;;;16.93;61.98;97716.96;116326;1178;59561;-66
2021/09/02 07:40:28;;;;;;;6.20;4.00;;;;;;;17.29;61.85;97723.95;116345;1181;59499;-70
2021/09/02 07:42:57;;;;;;;5.00;3.90;;;;;;;17.85;60.45;97728.91;116318;1179;70568;-66
2021/09/02 07:45:26;;;;;;;5.60;3.90;;;;;;;18.40;58.04;97729.48;116390;1181;68232;-67
2021/09/02 07:47:55;;;;;;;5.00;3.70;;;;;;;18.71;56.28;97733.44;116292;1180;69723;-66
2021/09/02 07:50:24;;;;;;;4.90;3.60;;;;;;;18.69;56.76;97730.78;116357;1179;59603;-70
2021/09/02 07:52:53;;;;;;;5.10;3.60;;;;;;;18.28;56.03;97732.08;116329;1181;59549;-66
2021/09/02 07:55:23;;;;;;;5.70;4.20;;;;;;;18.03;56.94;97739.09;116229;1181;71373;-66
2021/09/02 07:57:53;;;;;;;5.80;4.20;;;;;;;17.68;56.95;97731.10;116240;1181;68595;-68
2021/09/02 08:00:22;;;;;;;5.90;3.90;;;;;;;17.14;57.58;97729.04;116226;1181;68237;-66
2021/09/02 08:02:51;;;;;;;6.10;4.80;;;;;;;17.12;59.07;97728.20;116225;1178;59536;-66
2021/09/02 08:05:22;;;;;;;5.60;4.80;;;;;;;16.98;58.69;97724.52;116319;1181;59532;-66
2021/09/02 08:07:53;;;;;;;5.70;4.50;;;;;;;17.19;59.38;97726.08;116121;1181;71437;-68
2021/09/02 08:10:25;;;;;;;5.60;4.50;;;;;;;17.84;59.20;97727.28;116330;1181;68800;-66
2021/09/02 08:12:55;;;;;;;5.10;3.90;;;;;;;18.45;57.06;97727.93;116338;1181;69176;-67
2021/09/02 08:15:25;;;;;;;5.50;4.20;;;;;;;18.75;55.48;97725.29;116274;1181;59527;-68
2021/09/02 08:17:56;;;;;;;;;;;;;;;18.72;54.90;97721.11;116329;1179;59545;-66
2021/09/02 08:20:26;;;;;;;5.70;3.80;;;;;;;18.77;55.42;97721.70;116386;1181;71323;-68
2021/09/02 08:22:55;;;;;;;;;;;;;;;18.78;55.30;97725.14;116267;1179;69306;-67
2021/09/02 08:25:25;;;;;;;4.90;3.50;;;;;;;19.31;54.20;97726.10;116313;1178;69080;-67
2021/09/02 08:27:54;;;;;;;5.20;3.70;;;;;;;19.94;51.82;97731.55;116281;1181;59516;-69
2021/09/02 08:30:26;;;;;;;5.50;4.00;;;;;;;20.52;50.31;97731.46;116264;1178;59534;-67
2021/09/02 08:32:56;;;;;;;5.10;3.60;;;;;;;21.11;49.34;97727.84;116305;1182;70596;-68
2021/09/02 08:35:29;;;;;;;3.90;3.20;;;;;;;21.15;47.16;97726.02;116270;1181;69293;-69
2021/09/02 08:38:04;;;;;;;5.00;3.70;;;;;;;21.36;47.49;97724.89;116143;1179;68622;-69
2021/09/02 08:40:36;;;;;;;4.70;3.20;;;;;;;21.47;46.41;97724.96;116336;1181;59500;-67
2021/09/02 08:43:06;;;;;;;4.60;3.40;;;;;;;21.59;47.61;97725.38;116172;1181;59571;-69
2021/09/02 08:45:35;;;;;;;;;;;;;;;21.54;45.64;97730.30;116383;1178;71916;-71
2021/09/02 08:48:05;;;;;;;4.80;2.70;;;;;;;21.21;46.48;97729.61;116305;1181;68678;-70
2021/09/02 08:50:36;;;;;;;4.50;3.50;;;;;;;21.08;47.11;97736.36;116318;1181;68844;-68
2021/09/02 08:53:07;;;;;;;4.60;3.50;;;;;;;20.84;46.89;97739.48;116280;1183;59533;-70
2021/09/02 08:55:37;;;;;;;4.80;3.60;;;;;;;20.54;47.20;97742.64;116283;1182;59540;-70
2021/09/02 08:58:16;;;;;;;4.90;3.40;;;;;;;20.68;48.27;97739.34;116473;1181;71204;-71
2021/09/02 09:00:46;;;;;;;5.00;3.30;;;;;;;21.25;47.95;97736.20;116216;1184;68320;-69
2021/09/02 09:03:19;;;;;;;4.50;3.30;;;;;;;21.87;46.75;97731.42;116298;1179;69312;-68
2021/09/02 09:05:54;;;;;;;4.20;3.30;;;;;;;22.56;43.15;97728.90;116325;1179;59564;-67
2021/09/02 09:08:38;;;;;;;4.20;3.30;;;;;;;23.09;41.93;97726.92;116384;1178;59540;-68
2021/09/02 09:11:14;;;;;;;3.40;2.50;;;;;;;23.12;41.69;97729.92;116315;1179;71386;-68
2021/09/02 09:13:44;;;;;;;5.40;3.00;;;;;;;22.81;42.08;97732.91;116335;1178;69160;-68
2021/09/02 09:16:14;;;;;;;3.90;2.90;;;;;;;22.55;42.66;97732.81;116258;1181;68564;-70
2021/09/02 09:18:46;;;;;;;3.60;2.70;;;;;;;22.12;43.40;97729.79;116318;1181;59531;-68
2021/09/02 09:21:18;;;;;;;4.00;2.60;;;;;;;21.78;43.36;97730.92;116345;1178;59537;-69
2021/09/02 09:23:54;;;;;;;3.60;2.60;;;;;;;21.41;43.56;97731.39;116301;1181;70376;-69
2021/09/02 09:26:25;;;;;;;4.10;3.10;;;;;;;21.08;43.88;97733.13;116341;1181;69021;-67
2021/09/02 09:28:57;;;;;;;4.10;2.50;;;;;;;20.75;44.37;97733.06;116308;1181;69262;-70
2021/09/02 09:31:29;;;;;;;4.20;3.10;;;;;;;20.69;45.42;97735.17;116311;1181;59457;-71
2021/09/02 09:34:02;;;;;;;3.40;2.60;;;;;;;20.51;44.60;97733.56;116268;1178;59541;-68
2021/09/02 09:36:37;;;;;;;3.50;2.50;;;;;;;20.46;44.42;97736.77;116310;1181;69560;-66
2021/09/02 09:39:09;;;;;;;3.70;2.50;;;;;;;20.39;44.49;97737.16;116306;1181;69237;-70
2021/09/02 09:41:43;;;;;;;3.90;2.80;;;;;;;20.27;45.40;97739.48;116332;1181;69010;-68
2021/09/02 09:44:25;;;;;;;3.40;2.20;;;;;;;20.18;44.96;97737.31;116309;1178;59521;-69
2021/09/02 09:47:09;;;;;;;3.60;2.40;;;;;;;20.02;45.31;97737.58;116322;1179;59548;-69
2021/09/02 09:49:42;;;;;;;3.20;2.10;;;;;;;19.85;46.30;97741.09;116352;1179;71161;-69
2021/09/02 09:52:23;;;;;;;2.90;2.40;;;;;;;19.73;46.83;97737.80;116294;1181;69295;-66
2021/09/02 09:55:13;;;;;;;4.00;2.20;;;;;;;19.58;46.50;97739.27;116281;1178;69308;-68
2021/09/02 09:57:43;;;;;;;4.30;2.40;;;;;;;19.47;46.26;97740.86;116294;1181;59568;-66
2021/09/02 10:00:19;;;;;;;3.70;2.50;;;;;;;19.46;46.64;97739.36;116309;1181;59551;-69
2021/09/02 10:02:51;;;;;;;3.30;2.20;;;;;;;19.72;46.87;97737.00;116365;1181;70638;-68
2021/09/02 10:05:22;;;;;;;3.60;1.90;;;;;;;20.24;46.91;97734.52;116328;1181;68416;-67
2021/09/02 10:07:54;;;;;;;3.70;2.30;;;;;;;20.78;46.04;97724.82;116338;1181;69063;-70
2021/09/02 10:10:23;;;;;;;4.20;2.70;;;;;;;21.21;45.23;97722.51;116318;1178;59572;-68
2021/09/02 10:12:52;;;;;;;3.70;2.50;;;;;;;21.49;44.38;97724.92;116299;1181;59495;-70
2021/09/02 10:15:21;;;;;;;3.70;2.10;;;;;;;21.68;43.07;97725.64;116297;1182;70681;-70
2021/09/02 10:17:52;;;;;;;2.60;2.00;;;;;;;21.73;41.17;97721.98;116325;1178;69287;-70
2021/09/02 10:20:28;;;;;;;3.50;2.30;;;;;;;21.67;40.76;97724.95;116313;1181;69323;-69
2021/09/02 10:22:58;;;;;;;2.50;1.80;;;;;;;21.48;39.01;97722.84;116311;1178;59549;-70
2021/09/02 10:25:33;;;;;;;2.70;1.70;;;;;;;21.09;40.31;97727.73;116364;1179;59494;-70
2021/09/02 10:28:09;;;;;;;3.90;2.60;;;;;;;20.87;41.21;97729.13;116334;1179;69422;-70
2021/09/02 10:30:45;;;;;;;3.60;2.10;;;;;;;20.71;41.56;97726.77;116296;1181;69151;-69
2021/09/02 10:33:42;;;;;;;3.10;1.90;;;;;;;20.62;42.41;97724.22;116282;1181;68285;-69
2021/09/02 10:36:11;;;;;;;4.50;2.50;;;;;;;20.65;43.12;97718.94;116259;1181;59594;-68
2021/09/02 10:38:50;;;;;;;2.80;2.00;;;;;;;20.52;43.54;97719.52;116328;1182;59532;-69
2021/09/02 10:41:43;;;;;;;2.90;1.90;;;;;;;20.35;43.99;97725.71;116312;1182;70574;-69
2021/09/02 10:44:19;;;;;;;2.70;1.70;;;;;;;20.17;44.46;97730.88;116348;1181;68550;-71
2021/09/02 10:46:54;;;;;;;3.30;1.90;;;;;;;19.98;45.73;97731.96;116292;1181;69230;-67
2021/09/02 10:49:29;;;;;;;3.10;1.80;;;;;;;19.79;45.93;97738.13;116303;1180;59524;-68
2021/09/02 10:52:04;;;;;;;2.50;1.90;;;;;;;19.76;46.06;97739.83;116292;1181;59485;-67
2021/09/02 10:54:38;;;;;;;4.70;2.90;;;;;;;20.31;45.73;97743.69;116331;1181;71252;-70
2021/09/02 10:57:09;;;;;;;4.00;2.50;;;;;;;20.53;44.56;97735.52;116324;1179;68605;-70
2021/09/02 10:59:49;;;;;;;3.60;2.80;;;;;;;19.82;46.08;97737.33;116269;1181;68474;-68
2021/09/02 11:02:18;;;;;;;4.20;2.50;;;;;;;19.85;46.08;97740.06;116282;1179;59544;-69
2021/09/02 11:04:58;;;;;;;4.60;2.40;;;;;;;19.65;45.44;97741.48;116282;1181;59505;-71
2021/09/02 11:07:47;;;;;;;3.50;2.30;;;;;;;19.36;46.29;97748.36;116317;1179;70446;-69
2021/09/02 11:10:22;;;;;;;3.00;2.10;;;;;;;19.43;47.31;97754.39;116255;1182;69369;-70
2021/09/02 11:13:01;;;;;;;4.40;2.40;;;;;;;19.41;47.61;97751.45;116226;1181;69245;-66
2021/09/02 11:15:30;;;;;;;3.80;2.50;;;;;;;19.67;47.56;97753.86;116284;1181;59601;-67
2021/09/02 11:18:04;;;;;;;4.00;2.50;;;;;;;19.91;46.25;97749.90;116308;1181;59457;-72
2021/09/02 11:20:43;;;;;;;3.80;2.20;;;;;;;20.28;45.29;97751.27;116285;1181;71117;-69
2021/09/02 11:23:18;;;;;;;3.60;2.30;;;;;;;20.50;43.48;97748.91;116293;1181;68617;-68
2021/09/02 11:25:51;;;;;;;3.30;2.20;;;;;;;20.63;44.22;97744.14;116345;1181;68649;-69
2021/09/02 11:28:22;;;;;;;3.70;1.80;;;;;;;20.60;42.48;97745.52;116310;1178;59492;-69
2021/09/02 11:30:53;;;;;;;3.80;2.00;;;;;;;20.35;42.64;97747.13;116343;1181;59528;-67
2021/09/02 11:33:22;;;;;;;2.70;1.90;;;;;;;20.12;43.64;97747.80;116330;1178;70402;-70
2021/09/02 11:35:56;;;;;;;3.80;1.90;;;;;;;19.95;44.01;97753.75;116313;1179;69254;-69
2021/09/02 11:38:25;;;;;;;2.90;1.90;;;;;;;19.83;45.14;97757.94;116256;1178;69054;-69
2021/09/02 11:40:54;;;;;;;3.30;2.20;;;;;;;19.74;45.96;97758.70;116303;1178;59619;-68
2021/09/02 11:43:23;;;;;;;2.80;2.00;;;;;;;19.66;46.16;97758.73;116294;1181;59518;-67